Time;durP1;ratioP1;P1;durP2;ratioP2;P2;SDS_P1;SDS_P2;PMS_P1;PMS_P2;Temp;Humidity;BMP_temperature;BMP_pressure;BME280_temperature;BME280_humidity;BME280_pressure;Samples;Min_cycle;Max_cycle;Signal;HPM_P1;HPM_P2
2023/07/25 04:04:31;;;;;;;1.90;1.80;;;16.50;99.90;;;;;;6007092;23;20506;-66
2023/07/25 04:06:57;;;;;;;3.20;2.47;;;16.40;99.90;;;;;;4980381;28;20435;-69
2023/07/25 04:09:22;;;;;;;2.27;1.90;;;16.40;99.90;;;;;;4980597;28;20173;-66
2023/07/25 04:11:48;;;;;;;2.00;1.90;;;16.30;99.90;;;;;;4980721;28;20259;-66
2023/07/25 04:14:14;;;;;;;2.23;2.10;;;16.20;99.90;;;;;;4980191;28;20177;-67
2023/07/25 04:16:39;;;;;;;1.80;1.70;;;16.20;99.90;;;;;;4980712;28;20235;-66
2023/07/25 04:19:05;;;;;;;1.83;1.73;;;16.10;99.90;;;;;;4980501;28;20587;-68
2023/07/25 04:21:30;;;;;;;2.00;1.80;;;16.10;99.90;;;;;;4980223;28;20660;-67
2023/07/25 04:23:56;;;;;;;1.70;1.60;;;16.10;99.90;;;;;;4979737;28;20170;-68
2023/07/25 04:26:21;;;;;;;2.60;1.87;;;16.10;99.90;;;;;;4980593;28;20554;-67
2023/07/25 04:28:48;;;;;;;2.23;2.13;;;16.00;99.90;;;;;;4980485;28;20258;-68
2023/07/25 04:31:14;;;;;;;2.47;2.27;;;16.00;99.90;;;;;;4980486;28;20227;-65
2023/07/25 04:33:39;;;;;;;2.07;1.90;;;16.00;99.90;;;;;;4980116;28;20448;-67
2023/07/25 04:36:05;;;;;;;1.80;1.70;;;16.00;99.90;;;;;;4978781;28;20197;-66
2023/07/25 04:38:31;;;;;;;3.00;2.03;;;16.00;99.90;;;;;;4977430;28;20172;-69
2023/07/25 04:40:57;;;;;;;2.10;1.87;;;16.00;99.90;;;;;;4977303;28;20423;-67
2023/07/25 04:43:22;;;;;;;1.90;1.80;;;15.90;99.90;;;;;;4977051;28;20222;-67
2023/07/25 04:45:48;;;;;;;3.60;2.07;;;15.90;99.90;;;;;;4977373;28;20204;-69
2023/07/25 04:48:14;;;;;;;2.17;2.03;;;16.00;99.90;;;;;;4977072;28;20993;-68
2023/07/25 04:50:39;;;;;;;2.00;1.70;;;16.00;99.90;;;;;;4977512;28;20172;-68
2023/07/25 04:53:05;;;;;;;1.80;1.70;;;16.00;99.90;;;;;;4977185;28;20259;-66
2023/07/25 04:55:30;;;;;;;1.80;1.70;;;16.10;99.90;;;;;;4976678;28;20251;-68
2023/07/25 04:57:56;;;;;;;2.37;1.90;;;16.10;99.90;;;;;;4977022;28;20178;-68
2023/07/25 05:00:21;;;;;;;2.53;2.33;;;16.20;99.90;;;;;;4977069;28;20184;-67
2023/07/25 05:02:47;;;;;;;2.90;1.87;;;16.20;99.90;;;;;;4959734;28;20715;-67
2023/07/25 05:05:13;;;;;;;2.20;1.67;;;16.20;99.90;;;;;;4976572;28;20674;-66
2023/07/25 05:07:38;;;;;;;2.43;2.20;;;16.20;99.90;;;;;;4976993;28;20181;-66
2023/07/25 05:10:04;;;;;;;10.00;2.57;;;16.20;99.90;;;;;;4976874;28;20658;-68
2023/07/25 05:12:30;;;;;;;2.60;2.50;;;16.30;99.90;;;;;;4971202;28;20252;-65
2023/07/25 05:14:55;;;;;;;3.10;2.47;;;16.30;99.90;;;;;;4985277;28;20927;-67
2023/07/25 05:17:21;;;;;;;2.13;2.03;;;16.30;99.90;;;;;;4994226;28;20226;-64
2023/07/25 05:19:47;;;;;;;2.73;1.90;;;16.30;99.90;;;;;;4991835;28;20175;-66
2023/07/25 05:22:12;;;;;;;1.90;1.80;;;16.30;99.90;;;;;;4995936;28;20169;-68
2023/07/25 05:24:38;;;;;;;1.67;1.57;;;16.40;99.90;;;;;;4981100;28;20568;-67
2023/07/25 05:27:03;;;;;;;1.53;1.43;;;16.50;99.90;;;;;;4976778;28;20185;-67
2023/07/25 05:29:30;;;;;;;1.90;1.53;;;16.60;99.90;;;;;;4976516;28;20188;-64
2023/07/25 05:31:55;;;;;;;1.97;1.87;;;16.70;99.90;;;;;;4991251;28;20204;-68
2023/07/25 05:34:21;;;;;;;2.20;2.00;;;16.80;99.90;;;;;;4995702;28;20831;-65
2023/07/25 05:36:46;;;;;;;3.47;3.03;;;16.80;99.90;;;;;;4987454;28;20207;-64
2023/07/25 05:39:12;;;;;;;3.13;1.80;;;16.80;99.90;;;;;;4976615;28;20181;-62
2023/07/25 05:41:39;;;;;;;2.33;2.10;;;16.90;99.90;;;;;;4976417;28;20173;-62
2023/07/25 05:44:05;;;;;;;2.60;2.10;;;17.00;99.90;;;;;;4975892;28;20586;-62
2023/07/25 05:46:30;;;;;;;1.63;1.53;;;17.00;99.90;;;;;;4976171;28;20411;-62
2023/07/25 05:48:56;;;;;;;1.70;1.60;;;16.90;99.90;;;;;;4958224;28;20184;-63
2023/07/25 05:51:21;;;;;;;2.10;1.67;;;16.90;99.90;;;;;;4975864;28;20228;-62
2023/07/25 05:53:47;;;;;;;2.67;2.47;;;16.90;99.90;;;;;;4975622;28;20267;-62
2023/07/25 05:56:13;;;;;;;2.60;2.40;;;17.00;99.90;;;;;;4975786;28;20197;-62
2023/07/25 05:58:40;;;;;;;2.40;2.20;;;17.00;99.90;;;;;;4975496;28;20173;-62
2023/07/25 06:01:06;;;;;;;3.00;2.30;;;17.10;99.90;;;;;;4975945;28;20172;-61
2023/07/25 06:03:31;;;;;;;2.80;2.20;;;17.10;99.90;;;;;;4974456;28;20428;-62
2023/07/25 06:05:57;;;;;;;2.03;1.87;;;17.20;99.90;;;;;;4975289;28;20235;-62
2023/07/25 06:08:23;;;;;;;4.27;2.80;;;17.20;99.90;;;;;;4974289;28;20666;-62
2023/07/25 06:10:48;;;;;;;3.10;2.10;;;17.20;99.90;;;;;;4975686;28;20226;-62
2023/07/25 06:13:14;;;;;;;3.03;2.60;;;17.10;99.90;;;;;;4975791;28;20203;-62
2023/07/25 06:15:39;;;;;;;3.13;2.87;;;17.20;99.90;;;;;;4975158;28;20271;-65
2023/07/25 06:18:05;;;;;;;3.30;2.70;;;17.20;99.90;;;;;;4961109;28;20174;-65
2023/07/25 06:20:34;;;;;;;2.87;2.10;;;17.20;99.90;;;;;;4962674;28;20181;-63
2023/07/25 06:23:01;;;;;;;4.57;3.73;;;17.10;99.90;;;;;;4956002;29;20177;-64
2023/07/25 06:25:27;;;;;;;3.63;2.07;;;17.10;99.90;;;;;;4967823;28;20828;-63
2023/07/25 06:27:53;;;;;;;3.37;3.07;;;17.10;99.90;;;;;;4975213;28;20417;-65
2023/07/25 06:30:19;;;;;;;3.70;2.83;;;17.20;99.90;;;;;;4973126;28;20177;-64
2023/07/25 06:32:44;;;;;;;4.33;3.93;;;17.20;99.90;;;;;;4975102;28;20467;-65
2023/07/25 06:35:10;;;;;;;2.40;2.07;;;17.20;99.90;;;;;;4974060;28;20205;-67
2023/07/25 06:37:37;;;;;;;3.37;2.40;;;17.20;99.90;;;;;;4973532;28;20200;-67
2023/07/25 06:40:03;;;;;;;3.27;2.93;;;17.20;99.90;;;;;;4975228;28;20172;-67
2023/07/25 06:42:30;;;;;;;4.73;3.40;;;17.20;99.90;;;;;;4975053;28;20383;-65
2023/07/25 06:44:56;;;;;;;2.83;2.63;;;17.10;99.90;;;;;;4971268;28;21166;-65
2023/07/25 06:47:22;;;;;;;2.93;2.20;;;17.10;99.90;;;;;;4955549;28;20456;-66
2023/07/25 06:49:48;;;;;;;2.13;2.03;;;17.10;99.90;;;;;;4955548;28;20444;-66
2023/07/25 06:52:13;;;;;;;3.20;2.83;;;17.00;99.90;;;;;;4955714;28;20417;-64
2023/07/25 06:54:40;;;;;;;3.53;3.07;;;17.00;99.90;;;;;;4955211;29;20204;-64
2023/07/25 06:57:06;;;;;;;2.80;2.60;;;16.90;99.90;;;;;;4956594;28;20331;-65
2023/07/25 06:59:31;;;;;;;3.73;3.23;;;16.90;99.90;;;;;;4959462;28;20889;-63
2023/07/25 07:01:57;;;;;;;3.70;3.40;;;16.90;99.90;;;;;;4972916;28;20176;-64
2023/07/25 07:04:23;;;;;;;3.83;3.47;;;16.90;99.90;;;;;;4964040;28;20663;-63
2023/07/25 07:06:48;;;;;;;2.47;2.27;;;16.90;99.90;;;;;;4965222;28;20196;-65
2023/07/25 07:09:14;;;;;;;3.17;2.50;;;16.90;99.90;;;;;;4968469;28;21015;-64
2023/07/25 07:11:40;;;;;;;4.20;2.63;;;16.90;99.90;;;;;;4989363;28;20230;-67
2023/07/25 07:14:06;;;;;;;2.37;2.17;;;16.90;99.90;;;;;;4991498;28;20171;-66
2023/07/25 07:16:32;;;;;;;2.83;2.30;;;16.80;99.90;;;;;;4974471;28;21003;-65
2023/07/25 07:18:57;;;;;;;8.40;3.67;;;16.70;99.90;;;;;;4974644;28;20499;-63
2023/07/25 07:21:23;;;;;;;3.20;2.47;;;16.60;99.90;;;;;;4974078;28;20180;-64
2023/07/25 07:23:48;;;;;;;3.97;2.73;;;16.50;99.90;;;;;;4955851;28;20178;-63
2023/07/25 07:26:14;;;;;;;2.40;2.20;;;16.60;99.90;;;;;;4955199;28;20604;-65
2023/07/25 07:28:39;;;;;;;3.93;3.17;;;16.60;99.90;;;;;;4955072;29;20224;-65
2023/07/25 07:31:08;;;;;;;2.30;2.20;;;16.60;99.90;;;;;;4955415;29;20183;-62
2023/07/25 07:33:34;;;;;;;2.17;2.07;;;16.70;99.90;;;;;;4954877;29;20187;-66
2023/07/25 07:36:00;;;;;;;2.47;2.27;;;16.70;99.90;;;;;;4967887;28;20554;-65
2023/07/25 07:38:25;;;;;;;2.77;2.53;;;16.80;99.90;;;;;;4974536;28;20280;-66
2023/07/25 07:40:51;;;;;;;3.63;3.30;;;16.90;99.90;;;;;;4974444;28;20218;-64
2023/07/25 07:43:17;;;;;;;3.00;2.70;;;16.90;99.90;;;;;;4974796;28;20176;-65
2023/07/25 07:45:42;;;;;;;3.20;2.37;;;17.00;99.90;;;;;;4973985;28;20198;-62
2023/07/25 07:48:08;;;;;;;2.23;2.07;;;17.10;99.90;;;;;;4974569;28;20185;-63
2023/07/25 07:50:33;;;;;;;2.07;1.97;;;17.10;99.90;;;;;;4973667;28;20178;-65
2023/07/25 07:52:59;;;;;;;2.40;2.20;;;17.10;99.90;;;;;;4974546;28;20241;-63
2023/07/25 07:55:25;;;;;;;2.63;2.43;;;17.20;99.90;;;;;;4956287;28;20202;-65
2023/07/25 07:57:51;;;;;;;4.50;3.90;;;17.30;99.90;;;;;;4973743;28;20956;-63
2023/07/25 08:00:17;;;;;;;2.37;2.17;;;17.40;99.90;;;;;;4974072;28;20597;-63
2023/07/25 08:02:43;;;;;;;2.63;2.47;;;17.60;99.90;;;;;;4986115;28;20229;-64
2023/07/25 08:05:11;;;;;;;4.10;2.73;;;17.90;99.90;;;;;;4973796;28;20409;-64
2023/07/25 08:07:37;;;;;;;2.80;2.10;;;18.10;99.90;;;;;;4983279;28;20430;-65
2023/07/25 08:10:04;;;;;;;3.43;2.10;;;18.10;99.90;;;;;;4990229;28;20540;-60
2023/07/25 08:12:30;;;;;;;2.50;2.30;;;18.10;99.90;;;;;;4977340;28;20837;-64
2023/07/25 08:14:55;;;;;;;2.07;1.97;;;18.30;99.90;;;;;;4977647;28;20489;-63
2023/07/25 08:17:21;;;;;;;2.00;1.80;;;18.40;99.90;;;;;;4977747;28;20558;-61
2023/07/25 08:19:47;;;;;;;2.53;2.33;;;18.50;99.90;;;;;;4986801;28;20568;-61
2023/07/25 08:22:12;;;;;;;3.07;2.80;;;18.90;99.90;;;;;;4997109;28;20190;-64
2023/07/25 08:24:39;;;;;;;2.00;1.20;;;19.70;99.90;;;;;;4994433;28;20669;-64
2023/07/25 08:27:05;;;;;;;2.03;1.90;;;20.40;99.90;;;;;;4977590;28;20176;-63
2023/07/25 08:29:31;;;;;;;1.47;1.27;;;20.80;99.90;;;;;;4977360;28;20436;-64
2023/07/25 08:31:56;;;;;;;1.63;1.53;;;21.30;99.90;;;;;;4977568;28;20472;-64
2023/07/25 08:34:22;;;;;;;1.60;1.50;;;21.80;99.90;;;;;;4977204;28;20204;-63
2023/07/25 08:36:47;;;;;;;1.53;1.20;;;22.00;99.90;;;;;;4977329;28;20192;-63
2023/07/25 08:39:13;;;;;;;1.30;1.30;;;22.10;99.90;;;;;;4976988;28;20536;-62
2023/07/25 08:41:53;;;;;;;2.20;1.73;;;21.90;99.90;;;;;;4977153;28;20172;-64
2023/07/25 08:44:22;;;;;;;1.23;1.13;;;21.60;99.90;;;;;;4976845;28;20426;-64
2023/07/25 08:46:51;;;;;;;1.20;1.00;;;21.60;99.90;;;;;;4977431;28;20470;-62
2023/07/25 08:49:19;;;;;;;1.20;1.10;;;21.40;99.90;;;;;;4977779;28;20833;-63
2023/07/25 08:51:47;;;;;;;0.93;0.80;;;21.30;99.90;;;;;;4974178;28;20402;-63
2023/07/25 08:54:36;;;;;;;1.10;1.10;;;21.30;99.90;;;;;;4963215;28;20424;-63
2023/07/25 08:57:03;;;;;;;1.23;1.07;;;21.80;99.90;;;;;;4957632;29;20543;-63
2023/07/25 08:59:30;;;;;;;1.50;1.10;;;22.70;99.90;;;;;;4973659;28;20509;-63
2023/07/25 09:01:57;;;;;;;1.20;1.10;;;23.50;99.90;;;;;;4974264;28;20466;-64
2023/07/25 09:04:26;;;;;;;1.63;1.53;;;24.40;99.90;;;;;;4957211;29;20428;-66
2023/07/25 09:06:52;;;;;;;1.97;1.87;;;25.30;99.90;;;;;;4975175;28;20446;-65
2023/07/25 09:09:18;;;;;;;2.40;1.47;;;26.20;99.90;;;;;;4970380;28;20448;-65
2023/07/25 09:11:45;;;;;;;1.33;1.23;;;27.00;99.90;;;;;;4971159;28;20977;-65
2023/07/25 09:14:13;;;;;;;1.23;1.13;;;27.30;99.90;;;;;;4959955;28;20407;-64
2023/07/25 09:16:39;;;;;;;1.50;1.40;;;27.50;99.90;;;;;;4961474;28;20484;-65
2023/07/25 09:19:05;;;;;;;1.30;1.20;;;27.40;99.90;;;;;;4964452;28;20772;-64
2023/07/25 09:21:30;;;;;;;1.27;1.20;;;27.20;99.90;;;;;;4964751;28;20398;-65
2023/07/25 09:23:58;;;;;;;2.03;1.53;;;26.60;99.90;;;;;;4969661;28;20265;-64
2023/07/25 09:26:26;;;;;;;2.20;1.57;;;25.90;99.90;;;;;;4966755;28;20204;-65
2023/07/25 09:28:54;;;;;;;1.20;1.13;;;25.30;99.90;;;;;;4964793;28;20420;-64
2023/07/25 09:31:21;;;;;;;1.03;1.03;;;24.90;99.90;;;;;;4959045;28;20393;-64
2023/07/25 09:33:48;;;;;;;1.10;1.00;;;24.40;99.90;;;;;;4974285;28;20492;-63
2023/07/25 09:36:14;;;;;;;0.90;0.90;;;24.10;99.90;;;;;;4976232;28;20987;-62
2023/07/25 09:38:54;;;;;;;2.80;2.00;;;23.80;99.90;;;;;;4958982;28;20388;-64
2023/07/25 09:41:24;;;;;;;1.10;1.00;;;23.70;99.90;;;;;;4976136;28;20184;-65
2023/07/25 09:43:50;;;;;;;1.67;1.57;;;23.80;99.90;;;;;;4975774;28;20814;-64
2023/07/25 09:46:16;;;;;;;1.13;1.03;;;24.50;99.90;;;;;;4974637;28;20459;-65
2023/07/25 09:48:47;;;;;;;1.10;1.00;;;25.10;99.90;;;;;;4965883;28;20411;-66
2023/07/25 09:51:14;;;;;;;0.90;0.90;;;25.60;99.90;;;;;;4956726;28;20904;-63
2023/07/25 09:53:43;;;;;;;0.93;0.70;;;26.20;99.90;;;;;;4956233;28;20412;-64
2023/07/25 09:56:10;;;;;;;0.90;0.87;;;26.50;99.90;;;;;;4974887;28;20970;-63
2023/07/25 09:58:36;;;;;;;1.57;1.00;;;27.00;99.90;;;;;;4975737;28;20382;-64
2023/07/25 10:01:03;;;;;;;0.60;0.60;;;27.80;99.90;;;;;;4976093;28;20475;-63
2023/07/25 10:03:30;;;;;;;1.87;1.03;;;28.60;99.40;;;;;;4965290;28;20184;-64
2023/07/25 10:05:56;;;;;;;1.30;1.20;;;28.80;97.30;;;;;;4957308;28;20514;-68
2023/07/25 10:08:26;;;;;;;2.03;1.50;;;28.80;96.90;;;;;;4956686;29;20420;-68
2023/07/25 10:10:55;;;;;;;1.60;1.50;;;29.00;96.20;;;;;;4956531;28;20412;-69
2023/07/25 10:13:21;;;;;;;1.00;0.90;;;29.30;96.20;;;;;;4956667;28;20821;-69
2023/07/25 10:15:48;;;;;;;1.00;1.00;;;29.80;95.60;;;;;;4941465;28;20454;-68
2023/07/25 10:18:22;;;;;;;0.87;0.87;;;29.90;93.40;;;;;;4971148;28;20456;-68
2023/07/25 10:20:50;;;;;;;1.10;1.00;;;29.60;93.00;;;;;;4975708;28;20492;-68
2023/07/25 10:23:16;;;;;;;1.00;1.00;;;29.30;93.00;;;;;;4974275;28;20440;-70
2023/07/25 10:25:41;;;;;;;1.10;1.10;;;29.10;92.70;;;;;;4964149;28;20447;-70
2023/07/25 10:28:07;;;;;;;1.00;1.00;;;29.00;92.90;;;;;;4956230;29;20420;-66
2023/07/25 10:30:41;;;;;;;0.93;0.93;;;28.70;93.30;;;;;;4956592;28;20192;-68
2023/07/25 10:33:08;;;;;;;0.80;0.80;;;28.60;94.10;;;;;;4972243;28;20180;-69
2023/07/25 10:35:46;;;;;;;0.97;0.90;;;29.00;94.20;;;;;;4974663;28;20507;-69
2023/07/25 10:38:13;;;;;;;1.00;1.00;;;29.20;93.30;;;;;;4963073;28;20417;-68
2023/07/25 10:40:56;;;;;;;1.10;1.10;;;29.20;92.20;;;;;;4955866;29;20466;-70
2023/07/25 10:43:51;;;;;;;1.00;0.80;;;29.20;91.30;;;;;;4955477;29;20404;-69
2023/07/25 10:46:28;;;;;;;1.30;1.20;;;28.70;91.80;;;;;;4954249;28;20439;-68
2023/07/25 10:48:58;;;;;;;0.80;0.80;;;28.10;92.40;;;;;;4974958;28;20407;-69
2023/07/25 10:51:53;;;;;;;1.07;1.00;;;27.80;92.70;;;;;;4955761;28;20495;-68
2023/07/25 10:54:21;;;;;;;1.00;0.87;;;27.50;92.80;;;;;;4938261;29;20765;-68
2023/07/25 10:57:17;;;;;;;1.00;1.00;;;27.00;93.70;;;;;;4971971;28;20490;-68
2023/07/25 10:59:59;;;;;;;1.07;1.00;;;26.60;93.70;;;;;;4974335;28;20391;-68
2023/07/25 11:02:39;;;;;;;0.60;0.60;;;26.10;95.70;;;;;;4969994;28;20903;-68
2023/07/25 11:05:14;;;;;;;0.80;0.80;;;25.80;96.40;;;;;;4957061;28;20446;-68
2023/07/25 11:07:45;;;;;;;0.67;0.67;;;25.50;96.00;;;;;;4959593;28;20410;-67
2023/07/25 11:10:38;;;;;;;0.70;0.70;;;25.10;96.00;;;;;;4956361;28;20404;-67
2023/07/25 11:13:04;;;;;;;0.63;0.63;;;24.70;96.70;;;;;;4973541;28;20399;-68
2023/07/25 11:15:30;;;;;;;0.80;0.80;;;24.30;96.80;;;;;;4972624;28;20765;-67
2023/07/25 11:17:56;;;;;;;1.47;0.87;;;24.00;97.50;;;;;;4938069;29;20211;-68
2023/07/25 11:20:22;;;;;;;0.70;0.70;;;23.60;99.80;;;;;;4955433;29;20734;-67
2023/07/25 11:22:52;;;;;;;1.07;0.97;;;23.30;99.30;;;;;;4957844;28;20271;-68
2023/07/25 11:25:18;;;;;;;0.90;0.90;;;23.20;99.70;;;;;;4972663;28;20848;-67
2023/07/25 11:27:46;;;;;;;0.80;0.77;;;23.10;99.90;;;;;;4959700;28;20383;-67
2023/07/25 11:30:17;;;;;;;0.60;0.57;;;23.10;99.90;;;;;;4955944;28;20962;-66
2023/07/25 11:32:53;;;;;;;0.60;0.60;;;23.40;99.90;;;;;;4960753;28;20419;-68
2023/07/25 11:35:20;;;;;;;0.90;0.70;;;23.80;99.90;;;;;;4974123;28;20406;-68
2023/07/25 11:37:47;;;;;;;0.63;0.63;;;24.00;99.90;;;;;;4970171;28;20456;-69
2023/07/25 11:40:19;;;;;;;0.60;0.60;;;24.20;98.50;;;;;;4955344;29;20401;-69
2023/07/25 11:42:47;;;;;;;0.47;0.47;;;24.40;98.20;;;;;;4954974;28;20759;-69
2023/07/25 11:45:14;;;;;;;0.77;0.77;;;24.50;97.50;;;;;;4954725;28;20487;-69
2023/07/25 11:47:42;;;;;;;1.50;0.63;;;24.60;98.40;;;;;;4958207;28;20426;-69
2023/07/25 11:50:09;;;;;;;0.80;0.80;;;24.60;98.70;;;;;;4959866;28;20439;-68
2023/07/25 11:52:37;;;;;;;0.50;0.50;;;24.80;98.10;;;;;;4959038;29;20412;-69
2023/07/25 11:55:03;;;;;;;0.70;0.70;;;24.80;97.50;;;;;;4962632;28;20431;-66
2023/07/25 11:57:29;;;;;;;0.67;0.67;;;24.80;97.30;;;;;;4958852;28;20460;-68
2023/07/25 11:59:56;;;;;;;0.90;0.90;;;24.60;97.50;;;;;;4972418;28;20423;-68
2023/07/25 12:02:26;;;;;;;1.43;0.93;;;24.50;97.50;;;;;;4966015;28;20181;-67
2023/07/25 12:04:52;;;;;;;0.60;0.60;;;24.40;98.80;;;;;;4971947;28;20415;-68
2023/07/25 12:07:18;;;;;;;0.70;0.70;;;24.40;99.70;;;;;;4976092;28;20524;-68
2023/07/25 12:09:54;;;;;;;0.60;0.60;;;24.30;99.90;;;;;;4977474;28;20906;-68
2023/07/25 12:12:20;;;;;;;0.73;0.60;;;24.00;97.70;;;;;;4978000;28;20172;-68
2023/07/25 12:14:54;;;;;;;0.67;0.67;;;23.40;97.60;;;;;;4977170;28;20439;-69
2023/07/25 12:17:19;;;;;;;0.60;0.60;;;22.70;97.60;;;;;;4963893;28;20467;-69
2023/07/25 12:19:55;;;;;;;0.50;0.50;;;22.30;97.50;;;;;;4977776;28;20394;-68
2023/07/25 12:22:21;;;;;;;0.60;0.60;;;21.80;98.40;;;;;;4977494;28;20187;-68
2023/07/25 12:24:47;;;;;;;0.40;0.40;;;21.40;99.90;;;;;;4973781;28;20460;-66
2023/07/25 12:27:17;;;;;;;0.50;0.50;;;21.10;99.90;;;;;;4973407;28;20224;-67
2023/07/25 12:29:42;;;;;;;0.57;0.57;;;20.80;99.90;;;;;;4961932;28;20256;-71
2023/07/25 12:32:08;;;;;;;0.93;0.93;;;20.40;99.90;;;;;;4976998;28;21009;-73
2023/07/25 12:34:34;;;;;;;0.40;0.40;;;20.20;99.90;;;;;;4972638;28;20276;-74
2023/07/25 12:37:02;;;;;;;0.73;0.73;;;19.90;99.90;;;;;;4972363;28;20701;-73
2023/07/25 12:39:29;;;;;;;0.50;0.50;;;19.60;99.90;;;;;;4965150;28;20176;-73
2023/07/25 12:41:55;;;;;;;0.60;0.60;;;19.40;99.90;;;;;;4976163;28;20507;-69
2023/07/25 12:44:21;;;;;;;1.60;0.80;;;19.10;99.90;;;;;;4967242;28;20960;-71
2023/07/25 12:46:47;;;;;;;0.80;0.80;;;19.10;99.90;;;;;;4975674;28;20451;-70
2023/07/25 12:49:12;;;;;;;0.80;0.80;;;19.00;99.90;;;;;;4966200;28;20464;-73
2023/07/25 12:51:38;;;;;;;0.67;0.67;;;18.90;99.90;;;;;;4957829;29;20536;-71
2023/07/25 12:54:03;;;;;;;0.70;0.60;;;18.90;99.90;;;;;;4971918;28;20176;-73
2023/07/25 12:56:29;;;;;;;0.40;0.40;;;19.00;99.90;;;;;;4967586;28;20242;-73
2023/07/25 12:58:55;;;;;;;0.50;0.50;;;19.10;99.90;;;;;;4965159;28;20259;-72
2023/07/25 13:01:20;;;;;;;0.50;0.50;;;19.30;99.90;;;;;;4956504;28;20231;-72
2023/07/25 13:03:46;;;;;;;0.40;0.40;;;19.50;99.90;;;;;;4976531;28;20204;-73
2023/07/25 13:06:11;;;;;;;91.00;11.50;;;19.70;99.90;;;;;;4976510;28;20570;-72
2023/07/25 13:08:37;;;;;;;0.60;0.60;;;19.80;99.90;;;;;;4971416;28;20172;-72
2023/07/25 13:11:03;;;;;;;17.17;0.93;;;20.00;99.90;;;;;;4957622;29;20204;-75
2023/07/25 13:13:29;;;;;;;0.40;0.40;;;20.10;99.90;;;;;;4942928;28;20180;-71
2023/07/25 13:15:55;;;;;;;0.37;0.37;;;20.20;99.90;;;;;;4974255;28;20995;-73
2023/07/25 13:18:20;;;;;;;0.60;0.60;;;20.10;99.90;;;;;;4974703;28;20243;-70
2023/07/25 13:20:46;;;;;;;0.50;0.50;;;20.00;99.90;;;;;;4965520;28;20169;-75
2023/07/25 13:23:13;;;;;;;1.53;0.63;;;19.90;99.90;;;;;;4976559;28;20184;-72
2023/07/25 13:25:43;;;;;;;0.80;0.80;;;19.70;99.90;;;;;;4968927;28;20526;-72
2023/07/25 13:28:08;;;;;;;0.70;0.63;;;19.60;99.90;;;;;;4959488;28;20519;-70
2023/07/25 13:30:34;;;;;;;0.53;0.53;;;19.50;99.90;;;;;;4958643;28;20821;-74
2023/07/25 13:33:00;;;;;;;0.40;0.40;;;19.40;99.90;;;;;;4961101;28;20243;-70
2023/07/25 13:35:26;;;;;;;0.53;0.53;;;19.50;99.90;;;;;;4939243;29;20196;-73
2023/07/25 13:37:52;;;;;;;0.50;0.50;;;19.50;99.90;;;;;;4967503;28;20455;-69
2023/07/25 13:40:18;;;;;;;0.40;0.40;;;19.50;99.90;;;;;;4957100;28;20698;-72
2023/07/25 13:42:43;;;;;;;0.87;0.87;;;19.50;99.90;;;;;;4956985;28;20431;-73
2023/07/25 13:45:09;;;;;;;0.63;0.63;;;19.50;99.90;;;;;;4956710;29;20192;-73
2023/07/25 13:47:35;;;;;;;0.93;0.80;;;19.50;99.90;;;;;;4958510;28;20203;-73
2023/07/25 13:50:02;;;;;;;0.73;0.50;;;19.60;99.90;;;;;;4959999;28;20398;-69
2023/07/25 13:52:29;;;;;;;0.50;0.40;;;19.60;99.90;;;;;;4956906;28;20535;-73
2023/07/25 13:54:55;;;;;;;0.50;0.50;;;19.50;99.90;;;;;;4975714;28;20431;-70
2023/07/25 13:57:21;;;;;;;0.70;0.70;;;19.50;99.90;;;;;;4974706;28;20783;-73
2023/07/25 13:59:46;;;;;;;1.17;0.50;;;19.50;99.90;;;;;;4957063;28;20421;-70
2023/07/25 14:02:12;;;;;;;0.60;0.57;;;19.60;99.90;;;;;;4969947;28;20288;-73
2023/07/25 14:04:39;;;;;;;0.53;0.50;;;19.60;99.90;;;;;;4966993;28;20189;-72
2023/07/25 14:07:05;;;;;;;0.60;0.60;;;19.70;99.90;;;;;;4939877;28;20563;-71
2023/07/25 14:09:31;;;;;;;0.50;0.50;;;19.80;99.90;;;;;;4964382;28;20447;-70
2023/07/25 14:11:56;;;;;;;0.77;0.77;;;19.80;99.90;;;;;;4974643;28;20774;-74
2023/07/25 14:14:22;;;;;;;2.63;2.43;;;20.00;99.90;;;;;;4965525;28;20206;-73
2023/07/25 14:16:48;;;;;;;1.63;0.70;;;20.10;99.90;;;;;;4963885;28;20204;-70
2023/07/25 14:19:13;;;;;;;1.37;0.80;;;20.10;99.90;;;;;;4969995;28;20619;-74
2023/07/25 14:21:39;;;;;;;0.47;0.47;;;20.10;99.90;;;;;;4955884;28;20175;-73
2023/07/25 14:24:05;;;;;;;0.90;0.90;;;20.00;99.90;;;;;;4956199;28;20169;-70
2023/07/25 14:26:32;;;;;;;0.50;0.50;;;20.00;99.90;;;;;;4955796;29;20197;-70
2023/07/25 14:28:58;;;;;;;0.60;0.60;;;20.00;99.90;;;;;;4958780;28;20893;-70
2023/07/25 14:31:24;;;;;;;0.67;0.53;;;20.00;99.90;;;;;;4975139;28;20382;-69
2023/07/25 14:33:49;;;;;;;1.10;1.00;;;20.00;99.90;;;;;;4974874;28;20415;-69
2023/07/25 14:36:15;;;;;;;0.80;0.80;;;20.00;99.90;;;;;;4974742;28;20466;-67
2023/07/25 14:38:43;;;;;;;0.40;0.40;;;19.90;99.90;;;;;;4973952;28;20563;-71
2023/07/25 14:41:09;;;;;;;1.60;0.90;;;19.80;99.90;;;;;;4955750;28;20176;-72
2023/07/25 14:43:35;;;;;;;0.90;0.90;;;19.70;99.90;;;;;;4955534;28;20386;-70
2023/07/25 14:46:00;;;;;;;2.60;2.37;;;19.60;99.90;;;;;;4974973;28;20212;-67
2023/07/25 14:48:26;;;;;;;1.57;1.47;;;19.60;99.90;;;;;;4971451;28;20181;-66
2023/07/25 14:50:52;;;;;;;1.83;1.50;;;19.60;99.90;;;;;;4982162;28;20171;-65
2023/07/25 14:53:19;;;;;;;0.60;0.60;;;19.70;99.90;;;;;;4983510;28;20171;-68
2023/07/25 14:55:44;;;;;;;1.07;1.00;;;19.80;99.90;;;;;;4974670;28;20294;-66
2023/07/25 14:58:10;;;;;;;0.67;0.50;;;19.90;99.90;;;;;;4960510;28;21030;-66
2023/07/25 15:00:36;;;;;;;0.97;0.87;;;20.10;99.90;;;;;;4945763;28;20174;-66
2023/07/25 15:03:01;;;;;;;0.80;0.80;;;20.20;99.90;;;;;;4963108;28;20184;-67
2023/07/25 15:05:27;;;;;;;0.80;0.80;;;20.40;99.90;;;;;;4962599;28;20200;-67
2023/07/25 15:07:54;;;;;;;0.80;0.80;;;20.50;99.90;;;;;;4983048;28;20429;-67
2023/07/25 15:10:20;;;;;;;1.63;1.57;;;20.60;99.90;;;;;;4975903;28;20203;-68
2023/07/25 15:12:46;;;;;;;1.40;0.87;;;20.70;99.90;;;;;;4973435;28;20457;-66
2023/07/25 15:15:11;;;;;;;1.10;1.10;;;20.60;99.90;;;;;;4974191;28;20217;-68
2023/07/25 15:17:37;;;;;;;1.30;1.20;;;20.70;99.90;;;;;;4974860;28;20233;-66
2023/07/25 15:20:06;;;;;;;1.13;1.03;;;20.70;99.90;;;;;;4973889;28;20646;-65
2023/07/25 15:22:31;;;;;;;1.27;1.17;;;20.80;99.90;;;;;;4956762;28;20666;-65
2023/07/25 15:24:57;;;;;;;1.83;1.37;;;20.80;99.90;;;;;;4974247;28;20425;-65
2023/07/25 15:27:23;;;;;;;2.00;1.23;;;20.90;99.90;;;;;;4974619;28;20693;-65
2023/07/25 15:29:50;;;;;;;1.37;1.27;;;20.70;99.90;;;;;;4960060;28;20402;-64
2023/07/25 15:32:15;;;;;;;1.30;1.20;;;20.60;99.90;;;;;;4972125;28;20231;-66
2023/07/25 15:34:42;;;;;;;0.50;0.50;;;20.50;99.90;;;;;;4973690;28;20861;-66
2023/07/25 15:37:07;;;;;;;1.40;1.30;;;20.40;99.90;;;;;;4974426;28;20205;-67
2023/07/25 15:39:33;;;;;;;1.40;1.03;;;20.30;99.90;;;;;;4973827;28;20436;-66
2023/07/25 15:41:59;;;;;;;1.20;1.10;;;20.20;99.90;;;;;;4958037;28;20236;-66
2023/07/25 15:44:26;;;;;;;2.00;1.70;;;20.20;99.90;;;;;;4969514;28;20195;-66
2023/07/25 15:46:54;;;;;;;1.47;1.37;;;20.10;99.90;;;;;;4968703;28;20444;-65
2023/07/25 15:49:20;;;;;;;1.33;1.23;;;20.00;99.90;;;;;;4974067;28;20429;-66
2023/07/25 15:51:45;;;;;;;0.70;0.67;;;19.90;99.90;;;;;;4967113;28;20423;-67
2023/07/25 15:54:11;;;;;;;2.70;2.50;;;19.80;99.90;;;;;;4973962;28;20183;-66
2023/07/25 15:56:36;;;;;;;2.20;1.93;;;19.70;99.90;;;;;;4974247;28;20207;-67
2023/07/25 15:59:03;;;;;;;170.10;25.00;;;19.70;99.90;;;;;;4974030;28;20169;-67
2023/07/25 16:01:29;;;;;;;0.77;0.77;;;19.70;99.90;;;;;;4965925;28;20527;-68
2023/07/25 16:03:54;;;;;;;1.13;1.10;;;19.60;99.90;;;;;;4957688;28;20429;-73
2023/07/25 16:06:20;;;;;;;1.13;1.03;;;19.50;99.90;;;;;;4954668;28;20247;-75
2023/07/25 16:08:46;;;;;;;0.80;0.80;;;19.40;99.90;;;;;;4954785;28;20181;-72
2023/07/25 16:11:11;;;;;;;2.30;2.10;;;19.30;99.90;;;;;;4957810;28;20175;-73
2023/07/25 16:13:37;;;;;;;1.20;1.20;;;19.20;99.90;;;;;;4964777;28;20185;-72
2023/07/25 16:16:03;;;;;;;1.10;1.00;;;19.20;99.90;;;;;;4967371;28;20246;-73
2023/07/25 16:18:29;;;;;;;1.07;1.07;;;19.00;99.90;;;;;;4974067;28;20943;-72
2023/07/25 16:20:55;;;;;;;1.17;1.13;;;18.90;99.90;;;;;;4973945;28;20203;-74
2023/07/25 16:23:20;;;;;;;1.30;1.20;;;18.80;99.90;;;;;;4968365;28;20188;-73
2023/07/25 16:25:46;;;;;;;1.80;1.70;;;18.80;99.90;;;;;;4959433;28;20196;-73
2023/07/25 16:28:11;;;;;;;1.53;1.43;;;18.80;99.90;;;;;;4973976;28;20259;-73
2023/07/25 16:30:38;;;;;;;1.10;1.10;;;18.80;99.90;;;;;;4972741;28;20185;-69
2023/07/25 16:33:04;;;;;;;0.80;0.80;;;18.80;99.90;;;;;;4975940;28;20176;-72
2023/07/25 16:35:29;;;;;;;1.00;1.00;;;18.80;99.90;;;;;;4963621;28;21008;-74
2023/07/25 16:37:55;;;;;;;1.40;1.30;;;18.80;99.90;;;;;;4957945;28;20247;-71
2023/07/25 16:40:21;;;;;;;1.00;0.87;;;18.80;99.90;;;;;;4961702;28;20232;-71
2023/07/25 16:42:47;;;;;;;1.37;1.27;;;18.80;99.90;;;;;;4972854;28;20185;-73
2023/07/25 16:45:14;;;;;;;0.90;0.90;;;18.90;99.90;;;;;;4957593;29;20236;-75
2023/07/25 16:47:40;;;;;;;0.80;0.80;;;18.90;99.90;;;;;;4957950;29;20409;-73